createdAt,value
2022-10-12T00:00:40.640Z,21.10
2022-10-12T00:03:08.590Z,22.27
2022-10-12T00:05:36.692Z,22.73
2022-10-12T00:08:06.070Z,21.60
2022-10-12T00:10:34.120Z,20.90
2022-10-12T00:13:02.098Z,19.13
2022-10-12T00:15:30.039Z,19.83
2022-10-12T00:17:57.988Z,19.17
2022-10-12T00:20:25.915Z,18.80
2022-10-12T00:22:53.836Z,17.27
2022-10-12T00:25:23.131Z,16.67
2022-10-12T00:27:51.067Z,15.57
2022-10-12T00:30:19.208Z,17.70
2022-10-12T00:32:47.204Z,15.87
2022-10-12T00:35:15.300Z,17.77
2022-10-12T00:37:43.233Z,16.77
2022-10-12T00:40:12.921Z,16.97
2022-10-12T00:42:42.241Z,20.53
2022-10-12T00:45:11.237Z,20.43
2022-10-12T00:47:42.434Z,19.77
2022-10-12T00:50:17.028Z,20.70
2022-10-12T00:52:48.802Z,24.87
2022-10-12T00:55:19.947Z,23.57
2022-10-12T00:57:52.481Z,23.87
2022-10-12T01:00:21.197Z,23.63
2022-10-12T01:02:51.265Z,24.03
2022-10-12T01:05:20.701Z,25.10
2022-10-12T01:07:48.659Z,30.53
2022-10-12T01:10:16.650Z,28.73
2022-10-12T01:12:46.097Z,28.80
2022-10-12T01:15:15.512Z,29.80
2022-10-12T01:17:54.556Z,29.20
2022-10-12T01:20:46.654Z,29.97
2022-10-12T01:23:44.042Z,28.73
2022-10-12T01:26:50.305Z,28.17
2022-10-12T01:29:40.387Z,29.43
2022-10-12T01:32:18.880Z,30.27
2022-10-12T01:34:54.051Z,26.73
2022-10-12T01:37:30.454Z,28.07
2022-10-12T01:40:05.460Z,26.10
2022-10-12T01:42:38.210Z,26.17
2022-10-12T01:45:08.891Z,26.50
2022-10-12T01:47:40.313Z,28.67
2022-10-12T01:50:12.144Z,26.40
2022-10-12T01:52:46.854Z,26.53
2022-10-12T01:55:38.288Z,31.13
2022-10-12T01:58:21.651Z,32.40
2022-10-12T02:00:57.014Z,33.43
2022-10-12T02:03:33.152Z,32.50
2022-10-12T02:06:04.654Z,35.13
2022-10-12T02:08:36.881Z,36.83
2022-10-12T02:11:08.800Z,36.07
2022-10-12T02:13:40.974Z,36.40
2022-10-12T02:16:11.679Z,36.00
2022-10-12T02:18:45.636Z,37.80
2022-10-12T02:21:17.256Z,41.13
2022-10-12T02:23:48.739Z,39.30
2022-10-12T02:26:18.477Z,37.80
2022-10-12T02:28:48.557Z,34.37
2022-10-12T02:31:22.913Z,32.67
2022-10-12T02:33:59.881Z,32.77
2022-10-12T02:36:36.160Z,32.47
2022-10-12T02:39:07.832Z,31.80
2022-10-12T02:41:41.910Z,31.10
2022-10-12T02:44:13.234Z,32.83
2022-10-12T02:46:42.407Z,31.90
2022-10-12T02:49:13.881Z,32.30
2022-10-12T02:51:42.777Z,32.00
2022-10-12T02:54:10.935Z,34.23
2022-10-12T02:56:45.473Z,33.27
2022-10-12T02:59:13.537Z,32.20
2022-10-12T03:01:41.968Z,33.60
2022-10-12T03:04:11.625Z,32.27
2022-10-12T03:06:39.664Z,34.63
2022-10-12T03:09:07.876Z,32.40
2022-10-12T03:11:37.643Z,32.60
2022-10-12T03:14:06.322Z,31.87
2022-10-12T03:16:34.254Z,34.20
2022-10-12T03:19:02.178Z,32.93
2022-10-12T03:21:31.468Z,28.57
2022-10-12T03:23:59.488Z,33.90
2022-10-12T03:26:27.483Z,37.23
2022-10-12T03:28:55.535Z,39.10
2022-10-12T03:31:23.575Z,39.13
2022-10-12T03:33:51.524Z,42.50
2022-10-12T03:36:19.621Z,42.57
2022-10-12T03:38:48.944Z,42.90
2022-10-12T03:41:16.858Z,41.93
2022-10-12T03:43:44.794Z,42.37
2022-10-12T03:46:13.869Z,39.60
2022-10-12T03:48:42.089Z,39.20
2022-10-12T03:51:10.018Z,34.77
2022-10-12T03:53:41.816Z,33.37
2022-10-12T03:56:14.461Z,32.90
2022-10-12T03:58:42.427Z,32.13
2022-10-12T04:01:10.385Z,33.17
2022-10-12T04:03:38.344Z,32.90
2022-10-12T04:06:06.674Z,34.60
2022-10-12T04:08:34.664Z,33.23
2022-10-12T04:11:02.599Z,34.03
2022-10-12T04:13:31.896Z,34.83
2022-10-12T04:16:03.315Z,34.63
2022-10-12T04:18:31.343Z,36.30
2022-10-12T04:20:59.870Z,35.90
2022-10-12T04:23:27.954Z,37.80
2022-10-12T04:25:55.910Z,35.93
2022-10-12T04:28:23.874Z,43.07
2022-10-12T04:30:53.179Z,43.20
2022-10-12T04:33:21.152Z,42.80
2022-10-12T04:35:49.162Z,43.20
2022-10-12T04:38:17.217Z,42.33
2022-10-12T04:40:47.938Z,42.87
2022-10-12T04:43:16.657Z,41.63
2022-10-12T04:45:44.912Z,38.50
2022-10-12T04:48:14.211Z,36.97
2022-10-12T04:50:42.132Z,40.00
2022-10-12T04:53:10.076Z,40.00
2022-10-12T04:55:38.913Z,36.23
2022-10-12T04:58:06.838Z,36.33
2022-10-12T05:00:34.816Z,39.57
2022-10-12T05:03:03.047Z,39.40
2022-10-12T05:05:32.351Z,43.60
2022-10-12T05:08:00.274Z,41.30
2022-10-12T05:10:28.234Z,41.03
2022-10-12T05:12:56.274Z,44.10
2022-10-12T05:15:24.230Z,40.23
2022-10-12T05:17:52.160Z,37.73
2022-10-12T05:20:20.130Z,36.67
2022-10-12T05:22:49.576Z,41.03
2022-10-12T05:25:19.401Z,41.23
2022-10-12T05:27:47.355Z,38.90
2022-10-12T05:30:15.559Z,38.57
2022-10-12T05:32:44.771Z,37.40
2022-10-12T05:35:12.750Z,37.27
2022-10-12T05:37:41.156Z,37.87
2022-10-12T05:40:11.742Z,35.67
2022-10-12T05:42:40.127Z,37.37
2022-10-12T05:45:09.381Z,36.73
2022-10-12T05:47:37.677Z,35.27
2022-10-12T05:50:06.938Z,36.03
2022-10-12T05:52:34.968Z,35.17
2022-10-12T05:55:03.120Z,36.40
2022-10-12T05:57:32.453Z,37.13
2022-10-12T06:00:00.408Z,33.93
2022-10-12T06:02:28.398Z,37.20
2022-10-12T06:04:56.348Z,37.77
2022-10-12T06:07:24.310Z,40.97
2022-10-12T06:09:52.247Z,37.73
2022-10-12T06:12:20.446Z,40.57
2022-10-12T06:14:49.815Z,40.93
2022-10-12T06:17:17.788Z,39.57
2022-10-12T06:19:45.753Z,42.70
2022-10-12T06:22:13.709Z,51.27
2022-10-12T06:24:41.645Z,49.63
2022-10-12T06:27:10.445Z,48.27
2022-10-12T06:29:38.356Z,42.70
2022-10-12T06:32:07.682Z,41.07
2022-10-12T06:34:35.612Z,39.67
2022-10-12T06:37:03.654Z,42.37
2022-10-12T06:39:31.830Z,40.50
2022-10-12T06:41:59.778Z,39.57
2022-10-12T06:44:27.732Z,40.43
2022-10-12T06:46:55.716Z,40.57
2022-10-12T06:49:25.054Z,41.67
2022-10-12T06:51:53.068Z,39.97
2022-10-12T06:54:21.048Z,40.90
2022-10-12T06:56:48.996Z,41.50
2022-10-12T06:59:18.951Z,43.43
2022-10-12T07:01:47.025Z,39.17
2022-10-12T07:04:15.085Z,41.03
2022-10-12T07:06:44.507Z,37.83
2022-10-12T07:09:12.440Z,36.67
2022-10-12T07:11:40.385Z,35.40
2022-10-12T07:14:08.362Z,36.00
2022-10-12T07:16:36.317Z,37.13
2022-10-12T07:19:04.244Z,38.47
2022-10-12T07:21:32.235Z,36.93
2022-10-12T07:24:01.524Z,37.03
2022-10-12T07:26:29.624Z,35.10
2022-10-12T07:28:57.578Z,37.33
2022-10-12T07:31:25.864Z,38.30
2022-10-12T07:33:53.813Z,37.33
2022-10-12T07:36:22.286Z,36.50
2022-10-12T07:38:52.432Z,36.03
2022-10-12T07:41:21.735Z,36.13
2022-10-12T07:43:49.668Z,36.83
2022-10-12T07:46:17.621Z,35.80
2022-10-12T07:48:50.259Z,36.10
2022-10-12T07:51:19.318Z,34.77
2022-10-12T07:53:47.402Z,36.63
2022-10-12T07:56:18.380Z,36.70
2022-10-12T07:58:51.908Z,33.47
2022-10-12T08:01:21.317Z,34.30
2022-10-12T08:03:49.987Z,29.90
2022-10-12T08:06:19.966Z,30.37
2022-10-12T08:08:48.871Z,29.93
2022-10-12T08:11:17.455Z,28.60
2022-10-12T08:13:46.283Z,27.40
2022-10-12T08:16:17.475Z,28.63
2022-10-12T08:18:45.613Z,30.70
2022-10-12T08:21:16.132Z,31.40
2022-10-12T08:23:45.220Z,34.43
2022-10-12T08:26:13.922Z,31.83
2022-10-12T08:28:42.498Z,32.67
2022-10-12T08:31:11.927Z,32.37
2022-10-12T08:33:41.282Z,34.13
2022-10-12T08:36:10.165Z,32.93
2022-10-12T08:38:39.419Z,32.37
2022-10-12T08:41:25.541Z,34.43
2022-10-12T08:44:11.764Z,27.73
2022-10-12T08:46:39.829Z,28.37
2022-10-12T08:49:15.860Z,26.47
2022-10-12T08:51:50.090Z,28.73
2022-10-12T08:54:21.089Z,26.43
2022-10-12T08:56:49.141Z,25.27
2022-10-12T08:59:19.491Z,17.13
2022-10-12T09:02:00.367Z,18.00
2022-10-12T09:04:45.879Z,16.43
2022-10-12T09:07:18.743Z,15.77
2022-10-12T09:09:59.300Z,17.03
2022-10-12T09:12:44.219Z,17.50
2022-10-12T09:15:17.493Z,17.30
2022-10-12T09:17:50.036Z,14.47
2022-10-12T09:20:22.226Z,13.00
2022-10-12T09:22:52.781Z,11.93
2022-10-12T09:25:25.258Z,11.13
2022-10-12T09:27:54.172Z,12.03
2022-10-12T09:30:24.025Z,12.70
2022-10-12T09:33:16.468Z,11.13
2022-10-12T09:35:47.212Z,11.00
2022-10-12T09:38:15.376Z,11.47
2022-10-12T09:40:43.760Z,12.50
2022-10-12T09:43:12.777Z,11.30
2022-10-12T09:45:41.201Z,11.40
2022-10-12T09:48:19.283Z,11.60
2022-10-12T09:50:51.725Z,10.13
2022-10-12T09:53:25.559Z,9.13
2022-10-12T09:55:59.695Z,9.10
2022-10-12T09:58:28.908Z,8.27
2022-10-12T10:01:19.115Z,8.37
2022-10-12T10:03:52.994Z,7.97
2022-10-12T10:06:26.356Z,8.17
2022-10-12T10:08:55.404Z,7.13
2022-10-12T10:11:26.821Z,7.60
2022-10-12T10:13:55.984Z,7.27
2022-10-12T10:16:26.835Z,7.07
2022-10-12T10:18:59.913Z,6.27
2022-10-12T10:21:33.272Z,6.37
2022-10-12T10:24:02.791Z,6.17
2022-10-12T10:26:50.950Z,7.03
2022-10-12T10:29:32.310Z,6.73
2022-10-12T10:32:24.054Z,6.67
2022-10-12T10:35:03.169Z,6.17
2022-10-12T10:37:34.132Z,6.27
2022-10-12T10:40:03.282Z,6.60
2022-10-12T10:42:33.765Z,6.47
2022-10-12T10:45:04.902Z,6.57
2022-10-12T10:47:35.476Z,6.97
2022-10-12T10:50:07.685Z,6.80
2022-10-12T10:52:38.489Z,6.93
2022-10-12T10:55:21.780Z,6.78
2022-10-12T10:57:58.532Z,7.10
2022-10-12T11:00:38.675Z,6.43
2022-10-12T11:03:14.123Z,6.30
2022-10-12T11:05:45.845Z,6.57
2022-10-12T11:08:20.841Z,6.60
2022-10-12T11:10:52.882Z,6.65
2022-10-12T11:13:25.394Z,5.97
2022-10-12T11:15:58.587Z,6.60
2022-10-12T11:18:34.599Z,6.60
2022-10-12T11:21:08.573Z,6.47
2022-10-12T11:23:45.320Z,7.15
2022-10-12T11:26:22.562Z,5.88
2022-10-12T11:28:51.044Z,6.07
2022-10-12T11:31:25.986Z,6.20
2022-10-12T11:33:57.667Z,6.60
2022-10-12T11:36:29.751Z,6.35
2022-10-12T11:39:07.101Z,6.05
2022-10-12T11:42:03.254Z,6.85
2022-10-12T11:44:42.136Z,5.63
2022-10-12T11:47:17.193Z,6.03
2022-10-12T11:49:51.517Z,6.15
2022-10-12T11:52:22.072Z,6.78
2022-10-12T11:55:04.676Z,6.13
2022-10-12T11:57:37.108Z,6.20
2022-10-12T12:00:08.415Z,6.50
2022-10-12T12:02:42.214Z,6.00
2022-10-12T12:05:16.486Z,6.07
2022-10-12T12:07:49.442Z,6.63
2022-10-12T12:11:03.266Z,5.78
2022-10-12T12:13:33.232Z,5.50
2022-10-12T12:16:23.124Z,4.67
2022-10-12T12:19:35.868Z,5.45
2022-10-12T12:22:19.263Z,5.20
2022-10-12T12:25:04.467Z,7.13
2022-10-12T12:27:39.360Z,5.23
2022-10-12T12:30:25.761Z,5.60
2022-10-12T12:32:57.011Z,5.28
2022-10-12T12:35:29.944Z,6.15
2022-10-12T12:38:17.489Z,5.57
2022-10-12T12:40:57.494Z,5.20
2022-10-12T12:44:02.063Z,5.10
2022-10-12T12:50:02.143Z,4.97
2022-10-12T12:52:33.655Z,4.75
2022-10-12T12:55:31.346Z,5.15
2022-10-12T12:58:13.151Z,4.80
2022-10-12T13:00:48.287Z,4.60
2022-10-12T13:04:00.431Z,4.55
2022-10-12T13:07:07.230Z,4.80
2022-10-12T13:09:50.819Z,5.07
2022-10-12T13:12:34.050Z,5.18
2022-10-12T13:15:25.283Z,5.22
2022-10-12T13:18:34.676Z,4.47
2022-10-12T13:21:07.984Z,5.10
2022-10-12T13:23:38.619Z,4.60
2022-10-12T13:26:09.413Z,5.22
2022-10-12T13:28:42.677Z,4.63
2022-10-12T13:31:19.219Z,4.50
2022-10-12T13:33:52.010Z,4.40
2022-10-12T13:36:24.139Z,4.82
2022-10-12T13:38:58.301Z,3.95
2022-10-12T13:41:30.434Z,5.00
2022-10-12T13:43:59.833Z,5.25
2022-10-12T13:46:40.735Z,4.90
2022-10-12T13:49:16.507Z,4.95
2022-10-12T13:51:46.073Z,4.72
2022-10-12T13:54:23.933Z,4.53
2022-10-12T13:56:55.814Z,4.78
2022-10-12T13:59:26.095Z,4.93
2022-10-12T14:01:56.803Z,4.72
2022-10-12T14:04:29.674Z,4.63
2022-10-12T14:07:02.001Z,4.30
2022-10-12T14:09:40.572Z,4.60
2022-10-12T14:12:09.474Z,4.68
2022-10-12T14:14:39.900Z,4.55
2022-10-12T14:17:08.396Z,4.85
2022-10-12T14:19:45.049Z,5.00
2022-10-12T14:22:14.074Z,7.35
2022-10-12T14:24:43.424Z,5.22
2022-10-12T14:27:23.783Z,5.03
2022-10-12T14:29:55.349Z,4.93
2022-10-12T14:32:42.432Z,5.00
2022-10-12T14:35:14.570Z,5.28
2022-10-12T14:37:42.591Z,4.82
2022-10-12T14:40:34.751Z,5.63
2022-10-12T14:43:05.696Z,5.03
2022-10-12T14:45:34.282Z,5.05
2022-10-12T14:48:03.417Z,5.10
2022-10-12T14:50:33.202Z,5.05
2022-10-12T14:53:04.842Z,5.25
2022-10-12T14:55:35.211Z,5.40
2022-10-12T14:58:03.774Z,5.47
2022-10-12T15:00:34.762Z,5.53
2022-10-12T15:03:03.503Z,5.40
2022-10-12T15:05:33.504Z,5.40
2022-10-12T15:08:07.214Z,4.97
2022-10-12T15:10:37.603Z,5.30
2022-10-12T15:13:05.680Z,6.17
2022-10-12T15:15:39.700Z,5.28
2022-10-12T15:18:08.165Z,5.07
2022-10-12T15:20:36.979Z,5.65
2022-10-12T15:23:05.708Z,5.80
2022-10-12T15:25:44.821Z,5.63
2022-10-12T15:28:12.891Z,5.30
2022-10-12T15:31:04.126Z,5.25
2022-10-12T15:33:29.556Z,5.50
2022-10-12T15:35:57.896Z,5.63
2022-10-12T15:38:25.871Z,5.95
2022-10-12T15:40:58.046Z,6.10
2022-10-12T15:43:26.260Z,5.43
2022-10-12T15:45:56.395Z,5.55
2022-10-12T15:48:24.454Z,5.65
2022-10-12T15:50:52.417Z,5.90
2022-10-12T15:53:24.029Z,6.37
2022-10-12T15:55:52.242Z,5.67
2022-10-12T15:58:21.830Z,6.10
2022-10-12T16:00:50.366Z,6.23
2022-10-12T16:03:25.519Z,6.57
2022-10-12T16:05:54.141Z,7.73
2022-10-12T16:08:22.124Z,8.33
2022-10-12T16:10:50.470Z,8.17
2022-10-12T16:13:18.866Z,12.10
2022-10-12T16:15:48.358Z,10.70
2022-10-12T16:18:16.832Z,9.07
2022-10-12T16:20:49.623Z,9.87
2022-10-12T16:23:23.074Z,9.37
2022-10-12T16:25:51.024Z,8.60
2022-10-12T16:28:20.082Z,8.93
2022-10-12T16:30:50.070Z,9.73
2022-10-12T16:33:18.546Z,9.87
2022-10-12T16:35:46.665Z,11.43
2022-10-12T16:38:15.289Z,11.97
2022-10-12T16:40:43.636Z,13.10
2022-10-12T16:43:12.152Z,15.70
2022-10-12T16:45:40.134Z,16.60
2022-10-12T16:48:09.536Z,19.30
2022-10-12T16:50:40.851Z,16.03
2022-10-12T16:53:09.618Z,18.67
2022-10-12T16:55:39.838Z,19.73
2022-10-12T16:58:07.912Z,17.07
2022-10-12T17:00:36.047Z,14.40
2022-10-12T17:03:04.122Z,14.40
2022-10-12T17:05:33.436Z,14.30
2022-10-12T17:08:01.697Z,13.80
2022-10-12T17:10:29.697Z,13.03
2022-10-12T17:12:57.631Z,14.00
2022-10-12T17:15:25.564Z,12.63
2022-10-12T17:17:54.099Z,14.87
2022-10-12T17:20:22.053Z,13.53
2022-10-12T17:22:51.441Z,16.23
2022-10-12T17:25:19.438Z,15.97
2022-10-12T17:27:47.346Z,15.93
2022-10-12T17:30:15.362Z,16.17
2022-10-12T17:32:43.831Z,16.00
2022-10-12T17:35:11.937Z,16.17
2022-10-12T17:37:39.921Z,17.20
2022-10-12T17:40:10.847Z,18.23
2022-10-12T17:42:38.827Z,17.17
2022-10-12T17:45:07.697Z,17.47
2022-10-12T17:47:35.715Z,16.30
2022-10-12T17:50:03.859Z,16.33
2022-10-12T17:52:31.823Z,14.77
2022-10-12T17:55:01.107Z,15.50
2022-10-12T17:57:30.412Z,14.87
2022-10-12T17:59:58.354Z,14.63
2022-10-12T18:02:26.359Z,15.40
2022-10-12T18:04:54.278Z,14.83
2022-10-12T18:07:22.245Z,14.40
2022-10-12T18:09:50.233Z,14.23
2022-10-12T18:12:18.541Z,14.23
2022-10-12T18:14:48.141Z,15.37
2022-10-12T18:17:16.075Z,15.50
2022-10-12T18:19:45.815Z,16.17
2022-10-12T18:22:13.802Z,16.60
2022-10-12T18:24:42.081Z,16.80
2022-10-12T18:27:10.221Z,19.77
2022-10-12T18:29:38.209Z,21.47
2022-10-12T18:32:08.219Z,22.23
2022-10-12T18:34:36.833Z,21.93
2022-10-12T18:37:05.059Z,23.67
2022-10-12T18:39:33.117Z,24.67
2022-10-12T18:42:01.122Z,26.33
2022-10-12T18:44:29.060Z,26.33
2022-10-12T18:46:57.026Z,27.27
2022-10-12T18:49:26.364Z,27.87
2022-10-12T18:51:54.346Z,27.70
2022-10-12T18:54:22.436Z,27.47
2022-10-12T18:56:50.426Z,28.10
2022-10-12T18:59:19.385Z,26.50
2022-10-12T19:01:48.173Z,26.83
2022-10-12T19:04:16.657Z,26.17
2022-10-12T19:06:46.051Z,26.27
2022-10-12T19:09:14.755Z,25.47
2022-10-12T19:11:42.746Z,24.40
2022-10-12T19:14:14.771Z,23.77
2022-10-12T19:16:43.478Z,24.17
2022-10-12T19:19:20.540Z,24.13
2022-10-12T19:21:51.450Z,24.63
2022-10-12T19:24:20.769Z,25.00
2022-10-12T19:26:49.572Z,25.17
2022-10-12T19:29:17.570Z,24.50
2022-10-12T19:31:47.639Z,23.07
2022-10-12T19:34:18.137Z,23.77
2022-10-12T19:36:46.546Z,24.60
2022-10-12T19:39:17.630Z,26.07
2022-10-12T19:41:46.251Z,28.23
2022-10-12T19:44:14.778Z,28.73
2022-10-12T19:46:47.261Z,30.70
2022-10-12T19:49:15.989Z,29.90
2022-10-12T19:51:45.033Z,31.00
2022-10-12T19:54:15.650Z,32.27
2022-10-12T19:56:43.603Z,32.97
2022-10-12T19:59:11.680Z,33.93
2022-10-12T20:01:40.919Z,32.33
2022-10-12T20:04:12.020Z,35.13
2022-10-12T20:06:40.354Z,34.90
2022-10-12T20:09:09.754Z,32.83
2022-10-12T20:11:39.319Z,32.20
2022-10-12T20:14:07.627Z,32.67
2022-10-12T20:16:35.714Z,30.60
2022-10-12T20:19:04.395Z,28.93
2022-10-12T20:21:32.516Z,28.37
2022-10-12T20:24:00.539Z,28.83
2022-10-12T20:26:28.901Z,28.70
2022-10-12T20:28:58.264Z,28.20
2022-10-12T20:31:28.009Z,29.03
2022-10-12T20:33:57.858Z,29.10
2022-10-12T20:36:28.910Z,30.30
2022-10-12T20:38:58.324Z,30.07
2022-10-12T20:41:27.555Z,31.53
2022-10-12T20:43:58.185Z,29.63
2022-10-12T20:46:26.555Z,28.63
2022-10-12T20:48:58.630Z,27.37
2022-10-12T20:51:28.815Z,27.30
2022-10-12T20:53:59.075Z,29.73
2022-10-12T20:56:27.401Z,31.67
2022-10-12T20:58:56.214Z,35.00
2022-10-12T21:01:26.527Z,36.27
2022-10-12T21:03:55.295Z,35.73
2022-10-12T21:06:23.923Z,37.23
2022-10-12T21:08:53.952Z,34.63
2022-10-12T21:11:22.558Z,34.80
2022-10-12T21:13:50.855Z,36.13
2022-10-12T21:16:18.880Z,36.43
2022-10-12T21:18:48.259Z,38.93
2022-10-12T21:21:18.018Z,37.60
2022-10-12T21:23:51.523Z,55.43
2022-10-12T21:26:22.204Z,51.17
2022-10-12T21:28:50.301Z,48.20
2022-10-12T21:31:18.845Z,47.33
2022-10-12T21:33:48.383Z,47.20
2022-10-12T21:36:18.431Z,43.90
2022-10-12T21:38:47.034Z,45.10
2022-10-12T21:41:20.300Z,47.40
2022-10-12T21:43:49.402Z,49.50
2022-10-12T21:46:19.407Z,49.77
2022-10-12T21:48:49.545Z,49.60
2022-10-12T21:51:18.439Z,48.03
2022-10-12T21:53:46.572Z,47.83
2022-10-12T21:56:17.464Z,53.37
2022-10-12T21:58:46.028Z,53.23
2022-10-12T22:01:15.937Z,48.47
2022-10-12T22:03:44.757Z,45.63
2022-10-12T22:06:18.535Z,44.97
2022-10-12T22:08:51.268Z,43.90
2022-10-12T22:11:19.579Z,43.67
2022-10-12T22:13:47.550Z,43.77
2022-10-12T22:16:17.486Z,43.10
2022-10-12T22:18:45.959Z,44.40
2022-10-12T22:21:17.412Z,43.43
2022-10-12T22:23:46.219Z,44.20
2022-10-12T22:26:16.383Z,40.87
2022-10-12T22:28:44.807Z,40.07
2022-10-12T22:31:15.285Z,41.13
2022-10-12T22:33:43.512Z,43.03
2022-10-12T22:36:13.370Z,42.77
2022-10-12T22:38:42.672Z,37.97
2022-10-12T22:41:13.006Z,39.87
2022-10-12T22:43:41.465Z,39.80
2022-10-12T22:46:09.417Z,40.00
2022-10-12T22:48:38.180Z,40.77
2022-10-12T22:51:07.364Z,36.30
2022-10-12T22:53:36.582Z,39.27
2022-10-12T22:56:08.452Z,37.67
2022-10-12T22:58:36.897Z,38.53
2022-10-12T23:01:06.672Z,36.83
2022-10-12T23:03:35.858Z,37.33
2022-10-12T23:06:04.462Z,32.83
2022-10-12T23:08:32.689Z,35.83
2022-10-12T23:11:05.784Z,34.13
2022-10-12T23:13:34.433Z,35.37
2022-10-12T23:16:03.331Z,35.57
2022-10-12T23:18:31.289Z,35.37
2022-10-12T23:20:59.211Z,34.00
2022-10-12T23:23:27.140Z,34.03
2022-10-12T23:26:00.269Z,35.70
2022-10-12T23:28:30.070Z,35.87
2022-10-12T23:30:58.110Z,38.40
2022-10-12T23:33:26.179Z,34.33
2022-10-12T23:35:58.203Z,34.70
2022-10-12T23:38:26.801Z,32.97
2022-10-12T23:40:54.728Z,34.70
2022-10-12T23:43:22.734Z,36.50
2022-10-12T23:45:52.354Z,32.87
2022-10-12T23:48:20.480Z,37.10
2022-10-12T23:50:48.437Z,35.80
2022-10-12T23:53:16.416Z,34.20
2022-10-12T23:55:44.362Z,33.73
2022-10-12T23:58:12.316Z,35.93
